Ana Sayfa
METAR-TAF:

METAR-TAF

Havaalanları :

Ondangwa, Namibya

Enlem: 17-52-42S, Boylam: 015-57-09E, yükseklik: 1096 m

Güncel hava durumu gözlemi

Rapor saat 15:00 UTC de 4 saat ve 4 dakika önce yapıldı.
Rüzgar güneydan 4 kt
Sıcaklık 39°C
Nem 3%
Basınç 1010 hPa
Görüş mesafesi 10 km veya daha fazla
1500 m altında bulut yok ve kümülonimbus yok

METAR: FYOA 181500Z 18004KT CAVOK 39/M13 Q1010

Saat: 21:04 (19:04 UTC)

Tahmin

Rapor saat 17:00 UTC de 2 saat ve 4 dakika önce yapıldı.
Ayın 18'si saat 18 UTC'den ayın 19'si saat 03 UTC'ye kadar geçerli Tahmin
Rüzgar güneydan 5 kt
Görüş mesafesi 10 km veya daha fazla
1500 m altında bulut yok ve kümülonimbus yok

TAF: FYOA 181700Z 1818/1903 18005KT CAVOK

4.000'den fazla havaalanı için hava durumu gözlemleri ve tahminleri (METAR ve TAF raporları).

Kullanılabilir istasyonlar harita üzerinde sarı ve kırmızı noktalarla gösterilir.

İstasyonun adını görmek için fareyi noktanın üzerinde gezdirin.

Sonrasında hava gözlem ve tahminlerini görmek için tıklayın.

Haritayı değiştirmek için: yaklaştırmak için siyah artı işaretli yeşil düğmeye ve uzaklaştırmak için de eksi işaretli düğmeye hızla tıklayın; bitişik haritalar için yeşil okları kullanın.


METAR-TAF: